Challenge Cours la Province !

Le jogging Nature à Villers-aux-Tours (12.00 km)

samedi 04 août 2018

Vous pouvez trouver Le classement original sur : www.otopservices.be  
CHALLENGE COURS LA PROVINCE
LE JOGGING NATURE "AUTOUR DE VILLERS" - VILLERS-AUX-TOURS
DISTANCE : 11.95 km
samedi 04 août 2018
 
Place dos NOM Catégorie Pl/cat temps temps/km Vitesse
01:00:00              
1 60 PATRICK PHILIPPE VETERAN 1 1 00:46:15 03:52 15.50
2 109 JO VRANCKEN SENIOR H 1 00:46:27 03:53 15.43
3 77 MICHAEL DETRIXHE SENIOR H 2 00:49:50 04:10 14.39
4 101 PHILIPPE BAUDOIN VETERAN 1 2 00:52:21 04:23 13.69
5 17 BENOIT SCHOUMACKERS VETERAN 1 3 00:52:31 04:24 13.65
6 13 DAVID FRISON VETERAN 1 4 00:53:42 04:30 13.35
7 19 YVES GARIN VETERAN 1 5 00:53:53 04:31 13.30
8 142 CHRISTOPHE STALS SENIOR H 3 00:54:47 04:35 13.09
9 104 HELORI LAMBERTY SENIOR H 4 00:55:52 04:41 12.83
10 115 ANTOINE SCHMITZ SENIOR H 5 00:56:27 04:43 12.70
11 147 DAMIEN JOST SENIOR H 6 00:56:46 04:45 12.63
12 128 ALPHA OLEFS SENIOR H 7 00:56:48 04:45 12.62
13 40 GEORGES MABILLE VÉTÉRAN 2 1 00:57:17 04:48 12.51
14 118 SEBASTIEN DUHR SENIOR H 8 00:57:17 04:48 12.51
15 106 MAJID CHERKAOUI SENIOR H 9 00:57:35 04:49 12.45
16 140 VINCENT MEUNIER SENIOR H 10 00:57:52 04:51 12.39
17 61 IRENE TOSI SENIOR D 1 00:57:58 04:51 12.37
18 28 ALAIN MARCHAL VÉTÉRAN 2 2 00:58:14 04:52 12.31
19 10 RENAUD SCHUTZ VETERAN 1 6 00:58:18 04:53 12.30
20 2 BASTIEN GILSON SENIOR H 11 00:58:23 04:53 12.28
21 155 RUDY DEFLANDRE VÉTÉRAN 2 3 00:58:27 04:54 12.26
22 135 MARC LEONARD VETERAN 1 7 00:58:32 04:54 12.25
23 51 PATRICK CREMER VETERAN 3 1 00:59:08 04:57 12.12
24 38 VINCENT DEBIOLLE VÉTÉRAN 2 4 00:59:36 04:59 12.03
25 111 GEOFFREY BECK VETERAN 1 8 00:59:57 05:01 11.96
26 27 VALÉRIE BINJE AINÉE 1 1 00:59:57 05:01 11.96
27 82 OLIVIER SCHMETZ VETERAN 1 9 01:00:46 05:05 11.80
28 46 DOMINIQUE GILLET VÉTÉRAN 2 5 01:00:59 05:06 11.76
29 87 CORENTIN WASSON ESPOIR H 1 01:01:20 05:08 11.69
30 121 JEROME ROUSSELET SENIOR H 12 01:01:23 05:08 11.68
31 85 KEVIN WASSON SENIOR H 13 01:01:39 05:10 11.63
32 99 HAOUCHINE HASSN VETERAN 1 10 01:01:44 05:10 11.61
33 151 EMMANUELLE DEVAUX AINÉE 1 2 01:01:46 05:10 11.61
34 107 ADELINE ROSU SENIOR D 2 01:01:48 05:10 11.60
35 31 MICHAEL POULIART VETERAN 1 11 01:02:15 05:13 11.52
36 55 BENOIT BAUMANS VETERAN 1 12 01:02:32 05:14 11.46
37 11 MAUD GUILLIAMS SENIOR D 3 01:02:42 05:15 11.43
38 132 ARNAUD SPRIMONT SENIOR H 14 01:03:25 05:18 11.30
39 67 PHILIPPE GILSON VÉTÉRAN 2 6 01:05:03 05:27 11.02
40 148 CHRISTOPHE DETRIXHE VETERAN 1 13 01:05:11 05:27 11.00
41 114 BENJAMIN GROSJEAN SENIOR H 15 01:05:18 05:28 10.98
42 58 BEATRICE KEVELAER AINÉE 1 3 01:05:30 05:29 10.94
43 96 SEBASTIEN DAWANT SENIOR H 16 01:05:55 05:31 10.88
44 152 MANON GRUSLIN SENIOR D 4 01:07:20 05:38 10.65
45 16 MANUEL BOSCOLO VETERAN 1 14 01:07:37 05:40 10.60
46 45 YVES HANQUET VÉTÉRAN 2 7 01:07:39 05:40 10.60
47 35 MARC SIBOURG VÉTÉRAN 2 8 01:07:39 05:40 10.60
48 95 CHRISTIAN PARISSE VETERAN 1 15 01:08:03 05:42 10.53
49 1 CHRISTOPHE MEMURLIN SENIOR H 17 01:08:15 05:43 10.50
50 113 MARCELLO CARACINI VÉTÉRAN 2 9 01:10:27 05:54 10.18
51 30 OLIVIER DETAILLE VETERAN 1 16 01:11:08 05:57 10.08
52 73 ROGER ARCHAMBEAU VETERAN 3 2 01:11:24 05:59 10.04
53 108 NICOLAS CHABOTEAUX SENIOR H 18 01:11:52 06:01 9.98
54 90 JEAN-FRANCOIS THIRION VÉTÉRAN 2 10 01:11:54 06:01 9.97
55 76 HUGO RADDOUX VETERAN 3 3 01:11:57 06:01 9.96
56 25 CARINE MUNAUT AINÉE 2 1 01:12:06 06:02 9.94
57 120 DOMINIQUE DUPONT VÉTÉRAN 2 11 01:12:13 06:03 9.93
58 144 ADELINE STALS SENIOR D 5 01:12:32 06:04 9.88
59 146 DIMITRI MANFE SENIOR H 19 01:13:08 06:07 9.80
60 116 BERNARD VANVINCKENROYE VETERAN 1 17 01:13:22 06:08 9.77
61 54 DAVID CRANINX SENIOR H 20 01:14:08 06:12 9.67
62 29 JEAN-PAUL HOUTAIN VÉTÉRAN 2 12 01:14:56 06:16 9.57
63 34 VALÉRIE DURELLO SENIOR D 6 01:15:10 06:17 9.54
64 136 MARIE-HELENE SPILEERS SENIOR D 7 01:15:43 06:20 9.47
65 158 MARC D'JOOS VETERAN 3 4 01:16:29 06:24 9.37
66 23 FLORENCE SOMJA SENIOR D 8 01:16:59 06:27 9.31
67 127 GREGORY TRATSAERT SENIOR H 21 01:17:28 06:29 9.25
68 83 ISABELLE HAMONIC AINÉE 2 2 01:18:02 06:32 9.19
69 84 GAETANO FALZONE VETERAN 3 5 01:18:03 06:32 9.18
70 122 MANU THYS AINÉE 1 4 01:18:33 06:34 9.13
71 125 OLIVIER THYS VETERAN 1 18 01:18:33 06:34 9.13
72 71 BLAISE AGNELLO VÉTÉRAN 2 13 01:18:43 06:35 9.11
73 43 YVES RENARD SENIOR H 22 01:19:51 06:41 8.98
74 20 CAROLINE MERTENS SENIOR D 9 01:20:35 06:45 8.90
75 4 JACQUELINE COURTIN AINÉE 2 3 01:21:38 06:50 8.78
76 26 CARMELO PILLITTERI VÉTÉRAN 2 14 01:21:39 06:50 8.78
77 33 RUDI VEREECKEN VETERAN 3 6 01:21:42 06:50 8.77
78 36 THEODORA GIAGOULTSIS AINÉE 2 4 01:21:47 06:51 8.77
79 52 BEATRICE SEPUL AINÉE 3 1 01:21:52 06:51 8.76
80 117 BENOIT NELIS VETERAN 1 19 01:22:17 06:53 8.71
81 89 LUDIVINE VANDEWEYER AINÉE 1 5 01:22:20 06:53 8.71
82 154 FRANCOISE DELSAUTE AINÉE 3 2 01:23:13 06:58 8.61
83 80 ALEXANDRE GRANDCHAMPS VETERAN 3 7 01:24:10 07:03 8.52
84 14 VERONIQUE STAS AINÉE 1 6 01:24:43 07:05 8.46
85 62 CAROLINE FEKETE AINÉE 2 5 01:28:20 07:24 8.12
86 24 FABIAN BALDO VÉTÉRAN 2 15 01:30:17 07:33 7.94
87 88 ANDRE WASSON VÉTÉRAN 2 16 01:30:20 07:34 7.94
88 129 CATHERINE LEFEBVRE AINÉE 2 6 01:37:16 08:08 7.37
89 92 SANDRA DEDEE SENIOR D 10 01:37:21 08:09 7.36
90 42 PATRICIA MAGUIN AINÉE 2 7 01:37:21 08:09 7.36
91 57 VIRGINIE CRANINX SENIOR D 11 01:48:44 09:06 6.59